Wheatfield, New York
Current Conditions -  °F | °C
As of 5:53 AM on Friday 21 Nov 2014 (Local Time) from KIAG Reporting Station
Light Snow Light Snow  
Wind Chill: -15°   Ceiling: 3700
Heat Index: -7°   Visibility: 7mi
Dew Point: -11°   Wind: 16mph
Humidity: 74%   Direction: 260°W
Pressure: 30.19"   Gusts: NA
Location:  43.1007°N, 78.9485°W
Report Text: KIAG 211053Z AUTO 26014KT 7SM -SN FEW027 OVC037 M07/M11 A3019 RMK AO2 SNB50 SLP243 P0000 T10721111
Loading
Personal Weather Stations






























Interactive Weather Map New forecast layout! Learn more

10-Day Weather Forecast

Advertisements
Track Severe Weather on mobile